createdAt,value
2023-02-23T00:02:12.662Z,97112.00
2023-02-23T00:04:39.495Z,97114.00
2023-02-23T00:07:07.000Z,97106.00
2023-02-23T00:09:36.387Z,97104.00
2023-02-23T00:12:09.632Z,97101.00
2023-02-23T00:14:38.262Z,97111.00
2023-02-23T00:17:13.904Z,97105.00
2023-02-23T00:19:43.314Z,97097.00
2023-02-23T00:22:10.474Z,97106.00
2023-02-23T00:24:38.800Z,97101.00
2023-02-23T00:27:06.522Z,97102.00
2023-02-23T00:29:39.378Z,97078.00
2023-02-23T00:32:06.628Z,97078.00
2023-02-23T00:34:36.577Z,97102.00
2023-02-23T00:37:04.433Z,97093.00
2023-02-23T00:39:31.300Z,97101.00
2023-02-23T00:42:03.101Z,97089.00
2023-02-23T00:44:33.720Z,97086.00
2023-02-23T00:47:02.009Z,97083.00
2023-02-23T00:49:29.403Z,97073.00
2023-02-23T00:51:56.195Z,97089.00
2023-02-23T00:54:23.106Z,97079.00
2023-02-23T00:56:50.720Z,97106.00
2023-02-23T00:59:19.037Z,97093.00
2023-02-23T01:01:46.531Z,97090.00
2023-02-23T01:04:13.615Z,97096.00
2023-02-23T01:06:42.410Z,97097.00
2023-02-23T01:09:14.561Z,97113.00
2023-02-23T01:11:41.690Z,97097.00
2023-02-23T01:14:10.465Z,97089.00
2023-02-23T01:16:38.819Z,97107.00
2023-02-23T01:19:06.567Z,97095.00
2023-02-23T01:21:38.419Z,97100.00
2023-02-23T01:24:06.582Z,97088.00
2023-02-23T01:26:38.989Z,97090.00
2023-02-23T01:29:11.570Z,97094.00
2023-02-23T01:31:41.683Z,97082.00
2023-02-23T01:34:12.565Z,97079.00
2023-02-23T01:36:43.167Z,97060.00
2023-02-23T01:39:16.289Z,97070.00
2023-02-23T01:41:45.151Z,97059.00
2023-02-23T01:44:14.963Z,97083.00
2023-02-23T01:46:45.591Z,97087.00
2023-02-23T01:49:20.100Z,97077.00
2023-02-23T01:52:04.655Z,97072.00
2023-02-23T01:54:38.091Z,97072.00
2023-02-23T01:57:13.468Z,97062.00
2023-02-23T01:59:45.138Z,97082.00
2023-02-23T02:02:13.548Z,97074.00
2023-02-23T02:04:45.745Z,97074.00
2023-02-23T02:07:15.636Z,97092.00
2023-02-23T02:10:04.465Z,97077.00
2023-02-23T02:12:31.472Z,97077.00
2023-02-23T02:15:00.331Z,97069.00
2023-02-23T02:17:30.230Z,97080.00
2023-02-23T02:20:44.944Z,97070.00
2023-02-23T02:23:46.692Z,97084.00
2023-02-23T02:26:54.123Z,97076.00
2023-02-23T02:29:56.037Z,97081.00
2023-02-23T02:33:14.234Z,97072.00
2023-02-23T02:36:24.701Z,97066.00
2023-02-23T02:39:23.756Z,97059.00
2023-02-23T02:42:25.621Z,97074.00
2023-02-23T02:45:30.649Z,97059.00
2023-02-23T02:48:19.625Z,97050.00
2023-02-23T02:50:57.319Z,97066.00
2023-02-23T02:53:45.406Z,97065.00
2023-02-23T02:56:19.867Z,97030.00
2023-02-23T02:58:50.068Z,97069.00
2023-02-23T03:01:37.787Z,97049.00
2023-02-23T03:04:44.062Z,97051.00
2023-02-23T03:07:47.972Z,97046.00
2023-02-23T03:11:03.635Z,97057.00
2023-02-23T03:14:31.677Z,97054.00
2023-02-23T03:17:41.132Z,97052.00
2023-02-23T03:20:51.313Z,97042.00
2023-02-23T03:23:57.783Z,97072.00
2023-02-23T03:26:46.229Z,97058.00
2023-02-23T03:29:51.381Z,97045.00
2023-02-23T03:33:06.070Z,97059.00
2023-02-23T03:36:23.460Z,97054.00
2023-02-23T03:39:39.319Z,97042.00
2023-02-23T03:42:34.194Z,97056.00
2023-02-23T03:45:28.836Z,97050.00
2023-02-23T03:48:18.323Z,97052.00
2023-02-23T03:51:17.672Z,97059.00
2023-02-23T03:54:31.240Z,97054.00
2023-02-23T03:57:23.119Z,97056.00
2023-02-23T04:00:21.165Z,97052.00
2023-02-23T04:03:14.704Z,97044.00
2023-02-23T04:06:03.795Z,97045.00
2023-02-23T04:08:56.190Z,97047.00
2023-02-23T04:12:09.595Z,97046.00
2023-02-23T04:14:48.555Z,97054.00
2023-02-23T04:17:17.048Z,97046.00
2023-02-23T04:19:52.782Z,97048.00
2023-02-23T04:22:21.111Z,97070.00
2023-02-23T04:24:47.994Z,97053.00
2023-02-23T04:27:15.736Z,97063.00
2023-02-23T04:29:43.167Z,97067.00
2023-02-23T04:32:15.576Z,97062.00
2023-02-23T04:34:43.734Z,97057.00
2023-02-23T04:37:14.015Z,97059.00
2023-02-23T04:39:48.432Z,97049.00
2023-02-23T04:42:17.549Z,97049.00
2023-02-23T04:44:45.524Z,97065.00
2023-02-23T04:47:15.314Z,97052.00
2023-02-23T04:49:43.642Z,97060.00
2023-02-23T04:52:13.440Z,97065.00
2023-02-23T04:54:41.266Z,97047.00
2023-02-23T04:57:12.363Z,97052.00
2023-02-23T04:59:39.239Z,97059.00
2023-02-23T05:02:06.415Z,97062.00
2023-02-23T05:04:35.282Z,97058.00
2023-02-23T05:07:05.317Z,97065.00
2023-02-23T05:09:32.777Z,97051.00
2023-02-23T05:11:59.762Z,97053.00
2023-02-23T05:14:27.212Z,97060.00
2023-02-23T05:16:54.091Z,97064.00
2023-02-23T05:19:21.653Z,97057.00
2023-02-23T05:21:50.398Z,97057.00
2023-02-23T05:24:18.951Z,97063.00
2023-02-23T05:26:46.101Z,97071.00
2023-02-23T05:29:13.141Z,97065.00
2023-02-23T05:31:40.036Z,97069.00
2023-02-23T05:34:10.020Z,97067.00
2023-02-23T05:36:37.739Z,97058.00
2023-02-23T05:39:04.768Z,97060.00
2023-02-23T05:41:31.825Z,97068.00
2023-02-23T05:43:58.934Z,97056.00
2023-02-23T05:46:27.509Z,97064.00
2023-02-23T05:49:00.730Z,97064.00
2023-02-23T05:51:33.077Z,97059.00
2023-02-23T05:54:00.155Z,97064.00
2023-02-23T05:56:27.851Z,97078.00
2023-02-23T05:58:57.818Z,97064.00
2023-02-23T06:01:26.348Z,97066.00
2023-02-23T06:03:53.357Z,97068.00
2023-02-23T06:06:20.467Z,97071.00
2023-02-23T06:08:49.833Z,97076.00
2023-02-23T06:11:20.643Z,97060.00
2023-02-23T06:13:48.171Z,97067.00
2023-02-23T06:16:15.241Z,97084.00
2023-02-23T06:18:42.073Z,97073.00
2023-02-23T06:21:08.917Z,97091.00
2023-02-23T06:23:35.813Z,97076.00
2023-02-23T06:26:02.813Z,97084.00
2023-02-23T06:28:30.200Z,97080.00
2023-02-23T06:31:01.547Z,97088.00
2023-02-23T06:33:28.485Z,97099.00
2023-02-23T06:35:56.266Z,97087.00
2023-02-23T06:38:23.850Z,97104.00
2023-02-23T06:40:50.694Z,97095.00
2023-02-23T06:43:17.651Z,97086.00
2023-02-23T06:45:46.998Z,97097.00
2023-02-23T06:48:14.063Z,97108.00
2023-02-23T06:50:40.977Z,97104.00
2023-02-23T06:53:08.395Z,97107.00
2023-02-23T06:55:35.234Z,97112.00
2023-02-23T06:58:02.609Z,97109.00
2023-02-23T07:00:30.434Z,97109.00
2023-02-23T07:02:58.090Z,97106.00
2023-02-23T07:05:24.884Z,97106.00
2023-02-23T07:07:52.045Z,97117.00
2023-02-23T07:10:19.214Z,97114.00
2023-02-23T07:12:52.102Z,97112.00
2023-02-23T07:15:20.178Z,97128.00
2023-02-23T07:17:48.860Z,97130.00
2023-02-23T07:20:16.294Z,97147.00
2023-02-23T07:22:43.261Z,97133.00
2023-02-23T07:25:10.614Z,97132.00
2023-02-23T07:27:38.095Z,97138.00
2023-02-23T07:30:05.890Z,97138.00
2023-02-23T07:32:32.815Z,97144.00
2023-02-23T07:34:59.739Z,97139.00
2023-02-23T07:37:26.781Z,97147.00
2023-02-23T07:39:53.575Z,97152.00
2023-02-23T07:42:20.394Z,97149.00
2023-02-23T07:44:49.718Z,97153.00
2023-02-23T07:47:16.779Z,97146.00
2023-02-23T07:49:43.656Z,97148.00
2023-02-23T07:52:10.523Z,97160.00
2023-02-23T07:54:37.401Z,97148.00
2023-02-23T07:57:04.217Z,97157.00
2023-02-23T07:59:32.227Z,97153.00
2023-02-23T08:01:59.153Z,97165.00
2023-02-23T08:04:26.007Z,97163.00
2023-02-23T08:06:52.903Z,97172.00
2023-02-23T08:09:19.770Z,97154.00
2023-02-23T08:11:46.880Z,97158.00
2023-02-23T08:14:14.073Z,97160.00
2023-02-23T08:16:47.033Z,97165.00
2023-02-23T08:19:13.987Z,97162.00
2023-02-23T08:21:43.205Z,97175.00
2023-02-23T08:24:10.965Z,97162.00
2023-02-23T08:26:38.209Z,97178.00
2023-02-23T08:29:05.251Z,97172.00
2023-02-23T08:31:32.767Z,97183.00
2023-02-23T08:33:59.771Z,97174.00
2023-02-23T08:36:26.817Z,97175.00
2023-02-23T08:38:57.456Z,97181.00
2023-02-23T08:41:25.459Z,97182.00
2023-02-23T08:43:52.306Z,97185.00
2023-02-23T08:46:20.806Z,97201.00
2023-02-23T08:48:48.938Z,97184.00
2023-02-23T08:51:16.000Z,97209.00
2023-02-23T08:53:42.841Z,97197.00
2023-02-23T08:56:12.692Z,97191.00
2023-02-23T08:58:39.975Z,97199.00
2023-02-23T09:01:06.960Z,97205.00
2023-02-23T09:03:38.283Z,97204.00
2023-02-23T09:06:18.313Z,97196.00
2023-02-23T09:08:45.714Z,97212.00
2023-02-23T09:11:12.753Z,97210.00
2023-02-23T09:13:39.921Z,97214.00
2023-02-23T09:16:08.195Z,97209.00
2023-02-23T09:18:35.662Z,97212.00
2023-02-23T09:21:08.502Z,97202.00
2023-02-23T09:23:36.299Z,97217.00
2023-02-23T09:26:08.802Z,97219.00
2023-02-23T09:28:36.212Z,97214.00
2023-02-23T09:31:12.266Z,97203.00
2023-02-23T09:33:40.174Z,97225.00
2023-02-23T09:36:16.340Z,97234.00
2023-02-23T09:38:46.004Z,97231.00
2023-02-23T09:41:46.590Z,97224.00
2023-02-23T09:44:36.856Z,97222.00
2023-02-23T09:47:28.076Z,97236.00
2023-02-23T09:49:59.857Z,97231.00
2023-02-23T09:52:40.051Z,97235.00
2023-02-23T09:55:12.712Z,97227.00
2023-02-23T09:57:45.929Z,97232.00
2023-02-23T10:00:27.803Z,97240.00
2023-02-23T10:03:14.580Z,97227.00
2023-02-23T10:05:55.690Z,97241.00
2023-02-23T10:08:34.434Z,97235.00
2023-02-23T10:11:41.494Z,97242.00
2023-02-23T10:14:23.563Z,97243.00
2023-02-23T10:17:15.407Z,97240.00
2023-02-23T10:19:59.257Z,97245.00
2023-02-23T10:22:27.502Z,97247.00
2023-02-23T10:25:07.784Z,97248.00
2023-02-23T10:27:48.492Z,97264.00
2023-02-23T10:30:36.525Z,97247.00
2023-02-23T10:33:18.498Z,97260.00
2023-02-23T10:35:45.842Z,97270.00
2023-02-23T10:38:19.031Z,97243.00
2023-02-23T10:41:08.169Z,97249.00
2023-02-23T10:43:35.121Z,97249.00
2023-02-23T10:46:02.278Z,97253.00
2023-02-23T10:48:43.149Z,97243.00
2023-02-23T10:51:29.462Z,97263.00
2023-02-23T10:54:01.141Z,97273.00
2023-02-23T10:56:34.204Z,97264.00
2023-02-23T10:59:01.582Z,97256.00
2023-02-23T11:02:00.828Z,97274.00
2023-02-23T11:04:35.304Z,97255.00
2023-02-23T11:07:21.024Z,97270.00
2023-02-23T11:09:49.587Z,97258.00
2023-02-23T11:12:25.347Z,97263.00
2023-02-23T11:15:32.059Z,97259.00
2023-02-23T11:18:07.307Z,97260.00
2023-02-23T11:20:44.363Z,97245.00
2023-02-23T11:23:23.282Z,97255.00
2023-02-23T11:25:57.308Z,97258.00
2023-02-23T11:28:36.380Z,97264.00
2023-02-23T11:31:16.123Z,97239.00
2023-02-23T11:33:43.773Z,97248.00
2023-02-23T11:36:21.335Z,97260.00
2023-02-23T11:39:02.761Z,97255.00
2023-02-23T11:41:32.880Z,97247.00
2023-02-23T11:44:04.320Z,97258.00
2023-02-23T11:46:39.328Z,97257.00
2023-02-23T11:49:23.723Z,97262.00
2023-02-23T11:51:54.731Z,97262.00
2023-02-23T11:54:33.961Z,97266.00
2023-02-23T11:57:04.706Z,97265.00
2023-02-23T11:59:40.182Z,97243.00
2023-02-23T12:02:27.044Z,97255.00
2023-02-23T12:05:10.032Z,97262.00
2023-02-23T12:07:43.773Z,97252.00
2023-02-23T12:10:41.583Z,97256.00
2023-02-23T12:13:29.571Z,97241.00
2023-02-23T12:16:05.617Z,97235.00
2023-02-23T12:18:58.441Z,97249.00
2023-02-23T12:21:44.952Z,97249.00
2023-02-23T12:24:42.048Z,97260.00
2023-02-23T12:27:42.565Z,97244.00
2023-02-23T12:31:04.469Z,97249.00
2023-02-23T12:34:01.177Z,97261.00
2023-02-23T12:36:46.572Z,97236.00
2023-02-23T12:39:35.410Z,97255.00
2023-02-23T12:42:42.268Z,97253.00
2023-02-23T12:45:22.298Z,97240.00
2023-02-23T12:48:30.310Z,97235.00
2023-02-23T12:51:02.310Z,97222.00
2023-02-23T12:53:41.666Z,97217.00
2023-02-23T12:56:23.462Z,97224.00
2023-02-23T12:59:17.906Z,97229.00
2023-02-23T13:02:15.606Z,97230.00
2023-02-23T13:05:16.279Z,97226.00
2023-02-23T13:08:12.489Z,97242.00
2023-02-23T13:10:50.334Z,97231.00
2023-02-23T13:13:37.287Z,97232.00
2023-02-23T13:16:08.685Z,97236.00
2023-02-23T13:18:47.308Z,97237.00
2023-02-23T13:21:36.357Z,97233.00
2023-02-23T13:24:24.288Z,97227.00
2023-02-23T13:27:03.364Z,97233.00
2023-02-23T13:29:39.759Z,97246.00
2023-02-23T13:32:16.251Z,97236.00
2023-02-23T13:34:54.520Z,97241.00
2023-02-23T13:37:29.224Z,97219.00
2023-02-23T13:40:25.714Z,97237.00
2023-02-23T13:43:32.260Z,97233.00
2023-02-23T13:46:24.616Z,97254.00
2023-02-23T13:49:02.907Z,97248.00
2023-02-23T13:51:42.070Z,97231.00
2023-02-23T13:54:16.057Z,97237.00
2023-02-23T13:56:53.291Z,97236.00
2023-02-23T13:59:25.917Z,97232.00
2023-02-23T14:01:55.033Z,97247.00
2023-02-23T14:04:36.479Z,97239.00
2023-02-23T14:07:09.296Z,97243.00
2023-02-23T14:09:44.332Z,97249.00
2023-02-23T14:12:12.945Z,97246.00
2023-02-23T14:14:46.047Z,97249.00
2023-02-23T14:17:15.794Z,97248.00
2023-02-23T14:20:24.275Z,97254.00
2023-02-23T14:23:20.214Z,97245.00
2023-02-23T14:26:26.371Z,97262.00
2023-02-23T14:29:25.457Z,97254.00
2023-02-23T14:32:12.543Z,97257.00
2023-02-23T14:34:52.822Z,97248.00
2023-02-23T14:37:34.966Z,97242.00
2023-02-23T14:40:20.922Z,97242.00
2023-02-23T14:42:55.090Z,97262.00
2023-02-23T14:45:38.022Z,97255.00
2023-02-23T14:48:14.605Z,97260.00
2023-02-23T14:50:47.756Z,97262.00
2023-02-23T14:53:21.936Z,97263.00
2023-02-23T14:55:49.709Z,97269.00
2023-02-23T14:58:35.524Z,97252.00
2023-02-23T15:01:02.714Z,97268.00
2023-02-23T15:03:30.263Z,97257.00
2023-02-23T15:06:00.213Z,97265.00
2023-02-23T15:08:30.721Z,97272.00
2023-02-23T15:11:14.440Z,97262.00
2023-02-23T15:13:49.867Z,97274.00
2023-02-23T15:16:31.835Z,97258.00
2023-02-23T15:19:35.949Z,97272.00
2023-02-23T15:22:05.828Z,97287.00
2023-02-23T15:24:48.309Z,97261.00
2023-02-23T15:27:42.984Z,97283.00
2023-02-23T15:30:32.658Z,97258.00
2023-02-23T15:33:06.401Z,97272.00
2023-02-23T15:35:47.561Z,97275.00
2023-02-23T15:38:42.940Z,97278.00
2023-02-23T15:41:35.932Z,97273.00
2023-02-23T15:44:44.337Z,97280.00
2023-02-23T15:47:28.528Z,97284.00
2023-02-23T15:50:35.997Z,97277.00
2023-02-23T15:53:15.392Z,97271.00
2023-02-23T15:55:46.642Z,97296.00
2023-02-23T15:58:24.709Z,97272.00
2023-02-23T16:01:28.789Z,97286.00
2023-02-23T16:04:16.070Z,97285.00
2023-02-23T16:07:13.291Z,97287.00
2023-02-23T16:09:50.060Z,97294.00
2023-02-23T16:12:32.842Z,97287.00
2023-02-23T16:15:27.509Z,97293.00
2023-02-23T16:18:12.533Z,97287.00
2023-02-23T16:20:47.131Z,97292.00
2023-02-23T16:23:33.783Z,97296.00
2023-02-23T16:26:29.025Z,97289.00
2023-02-23T16:29:00.812Z,97282.00
2023-02-23T16:31:47.616Z,97296.00
2023-02-23T16:34:49.738Z,97283.00
2023-02-23T16:37:25.146Z,97302.00
2023-02-23T16:39:52.903Z,97277.00
2023-02-23T16:42:33.013Z,97286.00
2023-02-23T16:45:00.903Z,97288.00
2023-02-23T16:47:41.025Z,97284.00
2023-02-23T16:50:25.839Z,97287.00
2023-02-23T16:52:54.321Z,97279.00
2023-02-23T16:55:28.438Z,97294.00
2023-02-23T16:58:00.462Z,97279.00
2023-02-23T17:00:31.540Z,97287.00
2023-02-23T17:03:00.947Z,97281.00
2023-02-23T17:05:29.170Z,97286.00
2023-02-23T17:07:58.141Z,97291.00
2023-02-23T17:10:32.901Z,97284.00
2023-02-23T17:13:19.555Z,97292.00
2023-02-23T17:15:53.608Z,97302.00
2023-02-23T17:20:53.354Z,97267.00
2023-02-23T17:23:26.961Z,97296.00
2023-02-23T17:25:58.360Z,97299.00
2023-02-23T17:28:25.721Z,97290.00
2023-02-23T17:30:52.641Z,97292.00
2023-02-23T17:33:19.730Z,97307.00
2023-02-23T17:35:46.841Z,97299.00
2023-02-23T17:38:15.108Z,97287.00
2023-02-23T17:40:41.977Z,97294.00
2023-02-23T17:43:09.138Z,97282.00
2023-02-23T17:45:36.578Z,97292.00
2023-02-23T17:48:03.482Z,97306.00
2023-02-23T17:50:30.396Z,97296.00
2023-02-23T17:52:57.615Z,97303.00
2023-02-23T17:55:25.654Z,97300.00
2023-02-23T17:57:52.532Z,97295.00
2023-02-23T18:00:20.395Z,97285.00
2023-02-23T18:02:47.676Z,97292.00
2023-02-23T18:05:15.911Z,97282.00
2023-02-23T18:07:43.441Z,97286.00
2023-02-23T18:10:11.530Z,97306.00
2023-02-23T18:12:38.559Z,97298.00
2023-02-23T18:15:07.047Z,97304.00
2023-02-23T18:17:37.042Z,97307.00
2023-02-23T18:20:06.334Z,97301.00
2023-02-23T18:22:33.568Z,97287.00
2023-02-23T18:25:00.800Z,97303.00
2023-02-23T18:27:27.581Z,97299.00
2023-02-23T18:29:54.396Z,97310.00
2023-02-23T18:32:21.413Z,97305.00
2023-02-23T18:34:48.652Z,97315.00
2023-02-23T18:37:22.574Z,97311.00
2023-02-23T18:39:53.413Z,97303.00
2023-02-23T18:42:20.880Z,97313.00
2023-02-23T18:44:47.805Z,97327.00
2023-02-23T18:47:15.879Z,97315.00
2023-02-23T18:49:43.008Z,97306.00
2023-02-23T18:52:09.850Z,97309.00
2023-02-23T18:54:39.101Z,97318.00
2023-02-23T18:57:07.275Z,97308.00
2023-02-23T18:59:34.293Z,97308.00
2023-02-23T19:02:01.176Z,97292.00
2023-02-23T19:04:28.148Z,97311.00
2023-02-23T19:06:55.194Z,97301.00
2023-02-23T19:09:22.106Z,97307.00
2023-02-23T19:11:50.557Z,97298.00
2023-02-23T19:14:22.037Z,97306.00
2023-02-23T19:16:50.975Z,97312.00
2023-02-23T19:19:18.498Z,97304.00
2023-02-23T19:21:45.339Z,97304.00
2023-02-23T19:24:12.198Z,97300.00
2023-02-23T19:26:40.602Z,97290.00
2023-02-23T19:29:08.103Z,97294.00
2023-02-23T19:31:35.109Z,97302.00
2023-02-23T19:34:05.039Z,97296.00
2023-02-23T19:36:33.757Z,97305.00
2023-02-23T19:39:14.784Z,97278.00
2023-02-23T19:41:44.954Z,97290.00
2023-02-23T19:44:11.843Z,97290.00
2023-02-23T19:46:39.884Z,97287.00
2023-02-23T19:49:07.219Z,97283.00
2023-02-23T19:51:34.728Z,97296.00
2023-02-23T19:54:02.186Z,97293.00
2023-02-23T19:56:29.600Z,97303.00
2023-02-23T19:58:59.361Z,97302.00
2023-02-23T20:01:29.878Z,97312.00
2023-02-23T20:04:02.534Z,97299.00
2023-02-23T20:06:34.786Z,97296.00
2023-02-23T20:09:04.910Z,97297.00
2023-02-23T20:11:33.312Z,97306.00
2023-02-23T20:14:00.576Z,97308.00
2023-02-23T20:16:29.585Z,97313.00
2023-02-23T20:18:58.343Z,97324.00
2023-02-23T20:21:30.566Z,97305.00
2023-02-23T20:23:57.928Z,97318.00
2023-02-23T20:26:34.113Z,97324.00
2023-02-23T20:29:02.176Z,97310.00
2023-02-23T20:31:33.283Z,97317.00
2023-02-23T20:34:06.491Z,97314.00
2023-02-23T20:36:33.966Z,97305.00
2023-02-23T20:39:00.786Z,97314.00
2023-02-23T20:41:28.896Z,97319.00
2023-02-23T20:43:56.662Z,97312.00
2023-02-23T20:46:24.263Z,97327.00
2023-02-23T20:48:51.128Z,97299.00
2023-02-23T20:51:19.048Z,97300.00
2023-02-23T20:53:48.465Z,97298.00
2023-02-23T20:56:19.433Z,97301.00
2023-02-23T20:58:47.167Z,97316.00
2023-02-23T21:01:22.737Z,97307.00
2023-02-23T21:03:53.722Z,97294.00
2023-02-23T21:06:24.466Z,97313.00
2023-02-23T21:08:55.650Z,97320.00
2023-02-23T21:11:27.504Z,97305.00
2023-02-23T21:13:54.747Z,97329.00
2023-02-23T21:16:26.039Z,97317.00
2023-02-23T21:19:04.026Z,97306.00
2023-02-23T21:21:47.401Z,97311.00
2023-02-23T21:24:17.063Z,97326.00
2023-02-23T21:26:45.335Z,97329.00
2023-02-23T21:29:16.270Z,97317.00
2023-02-23T21:31:46.660Z,97319.00
2023-02-23T21:34:15.666Z,97311.00
2023-02-23T21:36:42.684Z,97317.00
2023-02-23T21:39:09.852Z,97294.00
2023-02-23T21:41:37.823Z,97285.00
2023-02-23T21:44:07.324Z,97296.00
2023-02-23T21:46:34.981Z,97296.00
2023-02-23T21:49:03.245Z,97296.00
2023-02-23T21:51:34.736Z,97292.00
2023-02-23T21:54:02.179Z,97296.00
2023-02-23T21:56:29.630Z,97287.00
2023-02-23T21:58:57.249Z,97295.00
2023-02-23T22:01:29.096Z,97302.00
2023-02-23T22:03:57.325Z,97290.00
2023-02-23T22:06:28.324Z,97299.00
2023-02-23T22:08:56.767Z,97281.00
2023-02-23T22:11:27.079Z,97304.00
2023-02-23T22:14:00.472Z,97284.00
2023-02-23T22:16:32.406Z,97301.00
2023-02-23T22:19:03.549Z,97290.00
2023-02-23T22:21:33.400Z,97288.00
2023-02-23T22:24:04.974Z,97272.00
2023-02-23T22:26:37.988Z,97271.00
2023-02-23T22:29:06.503Z,97291.00
2023-02-23T22:31:33.714Z,97264.00
2023-02-23T22:34:00.658Z,97274.00
2023-02-23T22:36:27.602Z,97272.00
2023-02-23T22:38:58.500Z,97272.00
2023-02-23T22:41:29.372Z,97294.00
2023-02-23T22:43:57.762Z,97285.00
2023-02-23T22:46:25.869Z,97277.00
2023-02-23T22:48:53.392Z,97264.00
2023-02-23T22:51:20.941Z,97288.00
2023-02-23T22:53:48.060Z,97248.00
2023-02-23T22:56:17.578Z,97267.00
2023-02-23T22:58:44.500Z,97242.00
2023-02-23T23:01:12.103Z,97258.00
2023-02-23T23:03:45.684Z,97262.00
2023-02-23T23:06:22.415Z,97263.00
2023-02-23T23:08:55.827Z,97258.00
2023-02-23T23:11:26.587Z,97246.00
2023-02-23T23:14:01.966Z,97242.00
2023-02-23T23:16:35.680Z,97241.00
2023-02-23T23:19:11.947Z,97249.00
2023-02-23T23:21:41.457Z,97241.00
2023-02-23T23:24:15.072Z,97258.00
2023-02-23T23:26:44.112Z,97257.00
2023-02-23T23:29:14.538Z,97243.00
2023-02-23T23:31:45.312Z,97254.00
2023-02-23T23:34:13.888Z,97244.00
2023-02-23T23:36:49.038Z,97238.00
2023-02-23T23:39:26.136Z,97242.00
2023-02-23T23:41:54.017Z,97232.00
2023-02-23T23:44:28.826Z,97233.00
2023-02-23T23:46:56.817Z,97217.00
2023-02-23T23:49:27.545Z,97232.00
2023-02-23T23:51:56.300Z,97226.00
2023-02-23T23:54:28.117Z,97229.00
2023-02-23T23:56:55.502Z,97229.00
2023-02-23T23:59:26.856Z,97221.00
